createdAt,value
2019-04-04T00:02:19.138Z,94.30
2019-04-04T00:04:47.986Z,94.25
2019-04-04T00:07:16.393Z,94.44
2019-04-04T00:09:45.017Z,95.28
2019-04-04T00:12:13.476Z,95.92
2019-04-04T00:14:43.515Z,95.73
2019-04-04T00:17:12.110Z,95.91
2019-04-04T00:19:40.534Z,94.88
2019-04-04T00:22:08.923Z,94.48
2019-04-04T00:24:39.332Z,95.27
2019-04-04T00:27:07.618Z,95.93
2019-04-04T00:29:36.189Z,95.85
2019-04-04T00:32:04.579Z,95.98
2019-04-04T00:34:32.972Z,95.50
2019-04-04T00:37:04.407Z,94.08
2019-04-04T00:39:31.699Z,95.90
2019-04-04T00:42:00.108Z,95.98
2019-04-04T00:44:28.494Z,96.27
2019-04-04T00:46:56.981Z,96.31
2019-04-04T00:49:25.370Z,97.92
2019-04-04T00:51:53.991Z,98.04
2019-04-04T00:54:22.430Z,96.39
2019-04-04T00:56:50.936Z,95.66
2019-04-04T00:59:22.642Z,94.97
2019-04-04T01:01:49.813Z,95.22
2019-04-04T01:04:18.200Z,94.58
2019-04-04T01:06:46.742Z,93.79
2019-04-04T01:09:15.140Z,93.65
2019-04-04T01:11:43.576Z,94.41
2019-04-04T01:14:11.959Z,94.91
2019-04-04T01:16:40.363Z,95.08
2019-04-04T01:19:09.978Z,95.74
2019-04-04T01:21:38.841Z,95.81
2019-04-04T01:24:07.295Z,96.08
2019-04-04T01:26:35.942Z,96.32
2019-04-04T01:29:05.834Z,95.94
2019-04-04T01:31:34.476Z,95.72
2019-04-04T01:34:04.614Z,95.53
2019-04-04T01:36:33.015Z,95.57
2019-04-04T01:39:01.807Z,95.85
2019-04-04T01:41:30.224Z,96.06
2019-04-04T01:44:04.967Z,96.30
2019-04-04T01:46:28.835Z,96.65
2019-04-04T01:49:16.486Z,96.81
2019-04-04T01:51:45.129Z,96.59
2019-04-04T01:54:13.566Z,96.09
2019-04-04T01:56:42.292Z,95.24
2019-04-04T01:59:12.296Z,95.53
2019-04-04T02:01:40.805Z,95.43
2019-04-04T02:04:09.443Z,95.45
2019-04-04T02:06:37.944Z,96.85
2019-04-04T02:09:07.674Z,97.09
2019-04-04T02:11:37.641Z,97.92
2019-04-04T02:14:06.432Z,98.46
2019-04-04T02:16:34.893Z,98.53
2019-04-04T02:19:03.373Z,98.45
2019-04-04T02:21:31.817Z,98.38
2019-04-04T02:24:01.638Z,97.96
2019-04-04T02:26:30.391Z,97.75
2019-04-04T02:28:58.867Z,97.61
2019-04-04T02:31:28.998Z,96.77
2019-04-04T02:33:57.385Z,96.86
2019-04-04T02:36:25.781Z,96.66
2019-04-04T02:39:08.766Z,95.72
2019-04-04T02:41:37.765Z,96.11
2019-04-04T02:44:06.514Z,96.82
2019-04-04T02:46:34.923Z,96.72
2019-04-04T02:49:03.890Z,96.72
2019-04-04T02:51:32.282Z,97.50
2019-04-04T02:54:00.695Z,97.45
2019-04-04T02:56:29.517Z,97.47
2019-04-04T02:58:57.986Z,97.55
2019-04-04T03:01:26.473Z,95.82
2019-04-04T03:03:54.952Z,94.74
2019-04-04T03:06:24.474Z,95.20
2019-04-04T03:08:53.542Z,95.38
2019-04-04T03:11:22.955Z,95.29
2019-04-04T03:13:51.546Z,94.82
2019-04-04T03:16:21.614Z,96.09
2019-04-04T03:18:50.203Z,96.13
2019-04-04T03:21:22.233Z,96.22
2019-04-04T03:23:49.047Z,96.20
2019-04-04T03:28:35.211Z,97.08
2019-04-04T03:31:04.164Z,96.01
2019-04-04T03:33:32.985Z,95.65
2019-04-04T03:36:01.461Z,94.54
2019-04-04T03:38:29.908Z,94.35
2019-04-04T03:40:58.801Z,97.24
2019-04-04T03:43:27.355Z,96.66
2019-04-04T03:46:00.359Z,97.48
2019-04-04T03:48:25.881Z,98.81
2019-04-04T03:50:57.181Z,97.38
2019-04-04T03:53:24.442Z,95.35
2019-04-04T03:55:53.054Z,95.53
2019-04-04T03:58:21.450Z,95.48
2019-04-04T04:00:49.913Z,95.58
2019-04-04T04:03:22.221Z,95.52
2019-04-04T04:05:48.426Z,95.18
2019-04-04T04:08:20.978Z,95.49
2019-04-04T04:10:46.991Z,95.40
2019-04-04T04:13:17.342Z,94.75
2019-04-04T04:15:45.591Z,95.12
2019-04-04T04:18:14.172Z,95.21
2019-04-04T04:20:42.664Z,95.70
2019-04-04T04:23:11.242Z,95.17
2019-04-04T04:25:41.316Z,95.98
2019-04-04T04:28:09.782Z,95.16
2019-04-04T04:30:40.424Z,95.28
2019-04-04T04:33:08.410Z,95.19
2019-04-04T04:35:40.816Z,94.38
2019-04-04T04:38:07.081Z,94.15
2019-04-04T04:40:35.540Z,94.38
2019-04-04T04:43:04.016Z,93.91
2019-04-04T04:45:32.406Z,93.41
2019-04-04T04:48:00.813Z,93.89
2019-04-04T04:50:29.432Z,94.70
2019-04-04T04:52:57.827Z,94.50
2019-04-04T04:55:27.236Z,94.97
2019-04-04T04:57:56.787Z,95.16
2019-04-04T05:00:27.668Z,95.09
2019-04-04T05:02:55.757Z,96.06
2019-04-04T05:05:24.203Z,95.51
2019-04-04T05:07:54.843Z,94.97
2019-04-04T05:10:22.806Z,94.97
2019-04-04T05:12:53.043Z,94.19
2019-04-04T05:15:21.518Z,93.91
2019-04-04T05:17:49.937Z,93.93
2019-04-04T05:20:18.404Z,93.41
2019-04-04T05:22:46.974Z,93.74
2019-04-04T05:25:15.435Z,93.61
2019-04-04T05:27:43.830Z,94.37
2019-04-04T05:30:15.922Z,94.10
2019-04-04T05:32:42.530Z,93.60
2019-04-04T05:35:11.024Z,93.44
2019-04-04T05:37:39.396Z,94.16
2019-04-04T05:40:08.818Z,94.03
2019-04-04T05:42:37.206Z,93.50
2019-04-04T05:45:07.755Z,94.07
2019-04-04T05:47:36.547Z,93.41
2019-04-04T05:50:06.348Z,93.48
2019-04-04T05:52:34.755Z,93.41
2019-04-04T05:55:03.764Z,93.15
2019-04-04T05:57:32.140Z,92.45
2019-04-04T06:00:00.567Z,92.92
2019-04-04T06:02:29.058Z,93.19
2019-04-04T06:04:57.609Z,92.55
2019-04-04T06:07:26.022Z,92.28
2019-04-04T06:09:54.703Z,92.63
2019-04-04T06:12:25.126Z,92.59
2019-04-04T06:14:53.356Z,93.27
2019-04-04T06:17:21.759Z,92.97
2019-04-04T06:19:50.527Z,92.92
2019-04-04T06:22:19.071Z,93.01
2019-04-04T06:24:52.013Z,93.63
2019-04-04T06:27:19.214Z,92.99
2019-04-04T06:29:48.302Z,91.79
2019-04-04T06:32:16.718Z,91.16
2019-04-04T06:34:45.300Z,90.73
2019-04-04T06:37:13.806Z,91.25
2019-04-04T06:39:42.367Z,91.33
2019-04-04T06:42:11.382Z,92.29
2019-04-04T06:44:39.951Z,91.33
2019-04-04T06:47:08.492Z,92.15
2019-04-04T06:49:36.960Z,92.55
2019-04-04T06:52:05.406Z,92.81
2019-04-04T06:54:33.806Z,93.52
2019-04-04T06:57:04.023Z,93.87
2019-04-04T06:59:33.304Z,93.42
2019-04-04T07:02:05.082Z,92.99
2019-04-04T07:04:35.744Z,93.23
2019-04-04T07:07:02.666Z,93.12
2019-04-04T07:09:31.246Z,93.41
2019-04-04T07:11:59.655Z,93.14
2019-04-04T07:14:30.208Z,93.84
2019-04-04T07:16:58.385Z,94.53
2019-04-04T07:19:26.926Z,94.48
2019-04-04T07:21:55.446Z,93.91
2019-04-04T07:24:23.892Z,94.51
2019-04-04T07:26:52.317Z,94.00
2019-04-04T07:29:20.774Z,93.41
2019-04-04T07:31:49.217Z,93.86
2019-04-04T07:34:17.649Z,93.62
2019-04-04T07:36:46.037Z,93.77
2019-04-04T07:39:14.472Z,93.93
2019-04-04T07:41:44.943Z,94.10
2019-04-04T07:44:13.164Z,94.04
2019-04-04T07:46:45.368Z,92.97
2019-04-04T07:49:11.809Z,92.50
2019-04-04T07:51:40.470Z,91.82
2019-04-04T07:54:09.056Z,92.23
2019-04-04T07:56:37.648Z,91.01
2019-04-04T07:59:06.050Z,91.47
2019-04-04T08:01:34.519Z,91.99
2019-04-04T08:04:03.032Z,92.05
2019-04-04T08:06:31.471Z,91.04
2019-04-04T08:08:59.977Z,91.62
2019-04-04T08:11:28.389Z,91.75
2019-04-04T08:13:56.819Z,91.50
2019-04-04T08:16:25.219Z,91.93
2019-04-04T08:18:53.718Z,91.48
2019-04-04T08:21:22.165Z,92.21
2019-04-04T08:23:50.857Z,92.43
2019-04-04T08:26:19.327Z,91.66
2019-04-04T08:28:47.747Z,92.11
2019-04-04T08:31:16.315Z,92.66
2019-04-04T08:33:44.737Z,93.22
2019-04-04T08:36:13.360Z,93.32
2019-04-04T08:38:41.775Z,92.05
2019-04-04T08:41:10.438Z,91.89
2019-04-04T08:43:38.852Z,92.52
2019-04-04T08:46:07.329Z,92.36
2019-04-04T08:48:35.755Z,91.57
2019-04-04T08:51:04.267Z,91.13
2019-04-04T08:53:39.862Z,90.68
2019-04-04T08:56:02.791Z,90.63
2019-04-04T08:58:31.186Z,90.80
2019-04-04T09:00:59.671Z,92.05
2019-04-04T09:03:28.091Z,91.71
2019-04-04T09:05:56.598Z,91.61
2019-04-04T09:08:25.203Z,90.59
2019-04-04T09:10:53.665Z,90.08
2019-04-04T09:13:22.145Z,91.50
2019-04-04T09:15:50.569Z,92.08
2019-04-04T09:18:19.000Z,91.17
2019-04-04T09:20:47.460Z,91.64
2019-04-04T09:23:15.919Z,91.09
2019-04-04T09:25:44.802Z,92.59
2019-04-04T09:28:13.201Z,93.21
2019-04-04T09:30:41.830Z,94.73
2019-04-04T09:33:10.234Z,96.09
2019-04-04T09:35:38.954Z,97.45
2019-04-04T09:38:07.367Z,99.07
2019-04-04T09:40:35.990Z,96.86
2019-04-04T09:43:04.531Z,97.12
2019-04-04T09:45:33.092Z,95.19
2019-04-04T09:48:01.511Z,94.88
2019-04-04T09:50:29.984Z,91.97
2019-04-04T09:52:58.384Z,93.56
2019-04-04T09:55:27.051Z,94.35
2019-04-04T09:57:55.542Z,95.38
2019-04-04T10:00:24.357Z,94.37
2019-04-04T10:02:53.078Z,94.86
2019-04-04T10:05:21.552Z,95.73
2019-04-04T10:07:50.209Z,95.49
2019-04-04T10:10:18.950Z,95.81
2019-04-04T10:12:47.393Z,95.51
2019-04-04T10:15:17.237Z,96.13
2019-04-04T10:17:49.112Z,96.06
2019-04-04T10:20:16.617Z,96.66
2019-04-04T10:22:45.092Z,95.81
2019-04-04T10:25:13.644Z,97.38
2019-04-04T10:27:42.187Z,97.66
2019-04-04T10:30:12.114Z,98.61
2019-04-04T10:32:40.531Z,98.41
2019-04-04T10:35:09.222Z,98.27
2019-04-04T10:37:37.659Z,98.72
2019-04-04T10:40:07.377Z,99.83
2019-04-04T10:42:36.105Z,99.48
2019-04-04T10:45:06.754Z,96.81
2019-04-04T10:47:35.207Z,97.54
2019-04-04T10:50:05.455Z,95.00
2019-04-04T10:52:33.916Z,94.63
2019-04-04T10:55:02.611Z,95.82
2019-04-04T10:57:31.101Z,95.93
2019-04-04T10:59:59.518Z,96.14
2019-04-04T11:02:28.040Z,97.00
2019-04-04T11:04:56.438Z,97.46
2019-04-04T11:07:25.118Z,97.19
2019-04-04T11:09:53.601Z,94.88
2019-04-04T11:12:22.008Z,93.36
2019-04-04T11:14:50.452Z,94.47
2019-04-04T11:17:18.827Z,92.73
2019-04-04T11:19:47.244Z,94.45
2019-04-04T11:22:15.642Z,93.92
2019-04-04T11:24:44.118Z,93.06
2019-04-04T11:27:12.763Z,93.28
2019-04-04T11:29:41.182Z,94.47
2019-04-04T11:32:09.658Z,95.79
2019-04-04T11:34:38.226Z,95.07
2019-04-04T11:37:06.665Z,94.97
2019-04-04T11:39:35.073Z,94.44
2019-04-04T11:42:03.672Z,93.82
2019-04-04T11:44:32.172Z,93.82
2019-04-04T11:47:00.741Z,92.96
2019-04-04T11:49:29.234Z,91.42
2019-04-04T11:51:57.899Z,91.63
2019-04-04T11:54:26.420Z,91.57
2019-04-04T11:56:54.969Z,93.19
2019-04-04T11:59:23.406Z,93.58
2019-04-04T12:01:52.793Z,92.79
2019-04-04T12:04:21.210Z,93.79
2019-04-04T12:06:49.656Z,93.46
2019-04-04T12:09:18.140Z,92.08
2019-04-04T12:11:46.558Z,92.45
2019-04-04T12:14:15.286Z,92.70
2019-04-04T12:16:43.680Z,92.20
2019-04-04T12:19:12.170Z,92.97
2019-04-04T12:21:40.694Z,91.92
2019-04-04T12:24:09.239Z,92.08
2019-04-04T12:26:37.668Z,92.49
2019-04-04T12:29:06.069Z,92.42
2019-04-04T12:31:34.518Z,91.17
2019-04-04T12:34:02.930Z,90.07
2019-04-04T12:36:31.607Z,90.21
2019-04-04T12:39:00.003Z,90.97
2019-04-04T12:41:28.599Z,91.04
2019-04-04T12:43:57.115Z,92.36
2019-04-04T12:46:25.533Z,92.53
2019-04-04T12:48:53.945Z,92.42
2019-04-04T12:51:22.403Z,91.63
2019-04-04T12:53:51.069Z,92.91
2019-04-04T12:56:19.625Z,91.15
2019-04-04T12:58:48.048Z,92.60
2019-04-04T13:01:16.449Z,92.62
2019-04-04T13:03:44.862Z,92.74
2019-04-04T13:06:13.334Z,93.70
2019-04-04T13:08:42.153Z,90.81
2019-04-04T13:11:10.532Z,91.05
2019-04-04T13:13:39.033Z,89.46
2019-04-04T13:16:07.423Z,91.15
2019-04-04T13:18:35.864Z,92.59
2019-04-04T13:21:04.352Z,93.29
2019-04-04T13:23:32.818Z,90.69
2019-04-04T13:26:01.225Z,94.34
2019-04-04T13:28:29.724Z,93.10
2019-04-04T13:30:58.193Z,92.74
2019-04-04T13:33:26.632Z,89.96
2019-04-04T13:35:55.180Z,91.75
2019-04-04T13:38:23.650Z,88.83
2019-04-04T13:40:52.049Z,91.15
2019-04-04T13:43:22.553Z,91.47
2019-04-04T13:45:50.583Z,88.43
2019-04-04T13:48:19.071Z,90.44
2019-04-04T13:50:47.606Z,89.98
2019-04-04T13:53:16.044Z,89.67
2019-04-04T13:55:44.449Z,91.07
2019-04-04T13:58:13.436Z,89.06
2019-04-04T14:00:41.931Z,86.75
2019-04-04T14:03:10.338Z,86.45
2019-04-04T14:05:38.900Z,86.94
2019-04-04T14:08:07.450Z,87.94
2019-04-04T14:10:35.903Z,87.18
2019-04-04T14:13:04.758Z,86.16
2019-04-04T14:15:33.314Z,86.93
2019-04-04T14:18:03.431Z,86.27
2019-04-04T14:20:32.027Z,84.32
2019-04-04T14:23:00.426Z,86.01
2019-04-04T14:25:29.543Z,84.45
2019-04-04T14:27:58.696Z,83.33
2019-04-04T14:30:27.459Z,83.17
2019-04-04T14:32:55.898Z,82.92
2019-04-04T14:35:24.343Z,85.47
2019-04-04T14:37:54.608Z,86.14
2019-04-04T14:40:23.155Z,84.62
2019-04-04T14:42:51.602Z,85.92
2019-04-04T14:45:20.080Z,85.72
2019-04-04T14:47:48.552Z,86.44
2019-04-04T14:50:17.125Z,85.92
2019-04-04T14:52:45.499Z,84.47
2019-04-04T14:55:14.147Z,83.81
2019-04-04T14:57:42.723Z,84.35
2019-04-04T15:00:15.654Z,84.99
2019-04-04T15:02:43.188Z,85.08
2019-04-04T15:05:11.783Z,84.25
2019-04-04T15:07:40.779Z,85.24
2019-04-04T15:10:09.504Z,86.91
2019-04-04T15:12:37.924Z,86.24
2019-04-04T15:15:07.703Z,88.47
2019-04-04T15:17:36.254Z,88.09
2019-04-04T15:20:05.906Z,88.82
2019-04-04T15:22:34.405Z,89.68
2019-04-04T15:25:02.881Z,90.57
2019-04-04T15:27:31.296Z,90.56
2019-04-04T15:29:59.802Z,91.08
2019-04-04T15:32:28.208Z,90.65
2019-04-04T15:34:56.690Z,91.64
2019-04-04T15:37:25.258Z,90.87
2019-04-04T15:39:53.798Z,91.17
2019-04-04T15:42:22.221Z,90.84
2019-04-04T15:44:50.655Z,90.36
2019-04-04T15:47:19.099Z,90.25
2019-04-04T15:49:47.573Z,91.03
2019-04-04T15:52:15.984Z,91.23
2019-04-04T15:54:44.399Z,92.61
2019-04-04T15:57:12.775Z,93.15
2019-04-04T15:59:41.201Z,93.85
2019-04-04T16:02:09.601Z,93.60
2019-04-04T16:04:38.023Z,93.61
2019-04-04T16:07:07.157Z,93.50
2019-04-04T16:09:35.611Z,93.23
2019-04-04T16:12:04.297Z,93.42
2019-04-04T16:14:32.713Z,94.51
2019-04-04T16:17:01.145Z,95.43
2019-04-04T16:19:29.660Z,96.37
2019-04-04T16:21:58.359Z,94.50
2019-04-04T16:24:26.743Z,93.64
2019-04-04T16:26:55.230Z,93.39
2019-04-04T16:29:23.711Z,93.22
2019-04-04T16:31:52.094Z,93.79
2019-04-04T16:34:20.525Z,93.49
2019-04-04T16:36:49.134Z,93.10
2019-04-04T16:39:17.576Z,94.36
2019-04-04T16:41:46.107Z,94.24
2019-04-04T16:44:14.551Z,95.06
2019-04-04T16:46:43.279Z,95.79
2019-04-04T16:49:11.713Z,96.52
2019-04-04T16:51:40.199Z,96.02
2019-04-04T16:54:09.078Z,95.91
2019-04-04T16:56:37.471Z,95.79
2019-04-04T16:59:06.127Z,95.59
2019-04-04T17:01:34.557Z,95.83
2019-04-04T17:04:03.537Z,97.02
2019-04-04T17:06:32.209Z,96.94
2019-04-04T17:09:00.696Z,97.21
2019-04-04T17:11:29.172Z,96.99
2019-04-04T17:13:57.832Z,97.72
2019-04-04T17:16:26.509Z,98.07
2019-04-04T17:18:54.967Z,98.70
2019-04-04T17:21:23.548Z,98.84
2019-04-04T17:23:52.084Z,98.05
2019-04-04T17:26:20.552Z,98.23
2019-04-04T17:28:49.123Z,97.99
2019-04-04T17:31:17.984Z,98.18
2019-04-04T17:33:46.490Z,99.11
2019-04-04T17:36:14.893Z,98.33
2019-04-04T17:38:43.876Z,98.17
2019-04-04T17:41:12.384Z,98.68
2019-04-04T17:43:40.777Z,99.66
2019-04-04T17:46:09.316Z,99.26
2019-04-04T17:48:38.015Z,99.19
2019-04-04T17:51:06.735Z,99.25
2019-04-04T17:53:35.460Z,99.28
2019-04-04T17:56:05.208Z,99.79
2019-04-04T17:58:33.537Z,100.00
2019-04-04T18:01:02.020Z,100.00
2019-04-04T18:03:30.447Z,100.00
2019-04-04T18:05:58.848Z,99.83
2019-04-04T18:08:27.444Z,99.90
2019-04-04T18:10:55.961Z,99.79
2019-04-04T18:13:24.398Z,100.00
2019-04-04T18:15:52.928Z,100.00
2019-04-04T18:18:21.329Z,100.00
2019-04-04T18:20:49.809Z,100.00
2019-04-04T18:23:18.379Z,100.00
2019-04-04T18:25:46.784Z,100.00
2019-04-04T18:28:15.226Z,99.74
2019-04-04T18:30:43.624Z,100.00
2019-04-04T18:33:12.129Z,100.00
2019-04-04T18:35:40.800Z,100.00
2019-04-04T18:38:09.282Z,100.00
2019-04-04T18:40:37.680Z,100.00
2019-04-04T18:43:06.362Z,100.00
2019-04-04T18:45:34.913Z,99.20
2019-04-04T18:48:03.592Z,99.18
2019-04-04T18:50:32.118Z,99.83
2019-04-04T18:53:00.602Z,99.24
2019-04-04T18:55:29.199Z,99.03
2019-04-04T18:57:57.713Z,99.24
2019-04-04T19:00:26.212Z,99.87
2019-04-04T19:02:54.831Z,99.86
2019-04-04T19:05:23.563Z,99.25
2019-04-04T19:07:52.063Z,99.05
2019-04-04T19:10:20.631Z,98.72
2019-04-04T19:12:49.250Z,98.87
2019-04-04T19:15:18.132Z,98.46
2019-04-04T19:17:56.453Z,98.89
2019-04-04T19:20:24.938Z,98.62
2019-04-04T19:22:53.691Z,99.22
2019-04-04T19:25:22.551Z,98.91
2019-04-04T19:27:50.981Z,99.28
2019-04-04T19:30:20.016Z,98.42
2019-04-04T19:32:48.630Z,98.54
2019-04-04T19:35:17.512Z,98.25
2019-04-04T19:37:45.995Z,98.20
2019-04-04T19:40:15.484Z,98.31
2019-04-04T19:42:43.974Z,98.89
2019-04-04T19:45:12.936Z,99.82
2019-04-04T19:47:41.613Z,100.00
2019-04-04T19:50:13.846Z,99.47
2019-04-04T19:52:42.406Z,98.59
2019-04-04T19:55:11.302Z,98.33
2019-04-04T19:57:39.849Z,98.52
2019-04-04T20:03:44.863Z,98.83
2019-04-04T20:06:13.595Z,99.13
2019-04-04T20:08:42.014Z,99.23
2019-04-04T20:11:10.462Z,98.33
2019-04-04T20:13:38.865Z,98.91
2019-04-04T20:16:07.380Z,98.28
2019-04-04T20:18:35.780Z,98.62
2019-04-04T20:21:04.427Z,99.18
2019-04-04T20:23:32.827Z,99.30
2019-04-04T20:26:01.406Z,99.60
2019-04-04T20:28:29.907Z,98.84
2019-04-04T20:30:58.585Z,98.01
2019-04-04T20:33:26.991Z,98.27
2019-04-04T20:35:55.548Z,98.09
2019-04-04T20:38:24.008Z,98.50
2019-04-04T20:40:52.414Z,97.54
2019-04-04T20:43:21.064Z,98.02
2019-04-04T20:45:49.544Z,98.05
2019-04-04T20:48:18.110Z,98.23
2019-04-04T20:50:46.530Z,97.74
2019-04-04T20:53:15.020Z,97.30
2019-04-04T20:55:47.256Z,98.32
2019-04-04T20:58:15.769Z,98.07
2019-04-04T21:00:44.239Z,98.16
2019-04-04T21:03:12.707Z,98.60
2019-04-04T21:05:41.302Z,98.81
2019-04-04T21:08:09.879Z,97.96
